Time;durP1;ratioP1;P1;durP2;ratioP2;P2;SDS_P1;SDS_P2;PMS_P1;PMS_P2;Temp;Humidity;BMP_temperature;BMP_pressure;BME280_temperature;BME280_humidity;BME280_pressure;Samples;Min_cycle;Max_cycle;Signal;HPM_P1;HPM_P2
2022/06/18 00:02:18;;;;;;;9.10;4.80;;;;;;;14.83;72.88;99076.55;106366;1277;22553;-82
2022/06/18 00:04:49;;;;;;;8.90;4.80;;;;;;;14.86;72.71;99076.59;106319;1277;24224;-83
2022/06/18 00:07:20;;;;;;;8.40;5.30;;;;;;;14.89;72.79;99075.79;106342;1277;137678;-83
2022/06/18 00:10:09;;;;;;;7.60;4.70;;;;;;;14.89;72.90;99073.09;106437;1277;24308;-83
2022/06/18 00:15:29;;;;;;;9.00;5.50;;;;;;;14.83;72.56;99070.30;106540;1277;22548;-84
2022/06/18 00:17:58;;;;;;;10.60;4.60;;;;;;;14.79;72.67;99069.42;106187;1281;137959;-83
2022/06/18 00:20:35;;;;;;;7.30;5.40;;;;;;;14.76;72.85;99067.43;106556;1278;23160;-84
2022/06/18 00:23:05;;;;;;;7.70;5.10;;;;;;;14.74;73.07;99065.10;106249;1278;31823;-83
2022/06/18 00:25:39;;;;;;;10.70;5.30;;;;;;;14.73;73.09;99063.12;106481;1277;25381;-84
2022/06/18 00:28:12;;;;;;;9.80;5.80;;;;;;;14.70;73.28;99065.55;106596;1277;23947;-84
2022/06/18 00:30:41;;;;;;;8.50;5.20;;;;;;;14.69;73.19;99068.00;106816;1277;137674;-83
2022/06/18 00:33:11;;;;;;;12.70;4.80;;;;;;;14.68;72.92;99062.41;106707;1277;22586;-83
2022/06/18 00:35:40;;;;;;;10.90;5.00;;;;;;;14.68;73.13;99063.01;106379;1276;137844;-84
2022/06/18 00:38:22;;;;;;;8.80;5.10;;;;;;;14.67;73.28;99064.37;106429;1276;23280;-84
2022/06/18 00:40:54;;;;;;;6.00;4.40;;;;;;;14.64;73.15;99064.27;106131;1277;22202;-84
2022/06/18 00:43:40;;;;;;;;;;;;;;;14.58;73.54;99060.48;106346;1277;137308;-84
2022/06/18 00:46:44;;;;;;;9.20;5.60;;;;;;;14.57;73.80;99063.91;106545;1276;22560;-83
2022/06/18 00:49:35;;;;;;;8.20;4.50;;;;;;;14.49;73.80;99062.27;106213;1276;137368;-85
2022/06/18 00:52:25;;;;;;;8.60;4.40;;;;;;;14.41;74.02;99061.30;106495;1277;25315;-83
2022/06/18 00:55:06;;;;;;;8.80;4.50;;;;;;;14.35;74.11;99068.61;106003;1277;137627;-82
2022/06/18 00:57:40;;;;;;;8.40;5.20;;;;;;;14.30;74.42;99074.25;106472;1277;22704;-83
2022/06/18 01:00:13;;;;;;;6.10;4.50;;;;;;;14.21;74.59;99072.92;106214;1277;137388;-83
2022/06/18 01:02:52;;;;;;;8.40;4.30;;;;;;;14.14;74.73;99073.50;106194;1277;25336;-82
2022/06/18 01:05:24;;;;;;;6.70;4.50;;;;;;;14.04;74.80;99070.95;106559;1276;138085;-83
2022/06/18 01:07:56;;;;;;;9.90;4.30;;;;;;;13.96;75.09;99073.14;106110;1277;22866;-83
2022/06/18 01:10:32;;;;;;;5.60;4.90;;;;;;;13.93;75.54;99068.16;106219;1276;25255;-83
2022/06/18 01:13:06;;;;;;;5.20;4.40;;;;;;;13.91;75.85;99071.81;106272;1276;137223;-83
2022/06/18 01:15:35;;;;;;;11.30;4.80;;;;;;;13.87;75.89;99071.31;105992;1278;22684;-84
2022/06/18 01:18:08;;;;;;;4.90;4.00;;;;;;;13.86;75.96;99076.27;106303;1276;138333;-86
2022/06/18 01:21:01;;;;;;;7.40;5.40;;;;;;;13.85;75.96;99076.64;106146;1276;24600;-83
2022/06/18 01:23:42;;;;;;;9.40;5.60;;;;;;;13.80;75.86;99072.36;106315;1278;137200;-85
2022/06/18 01:26:11;;;;;;;9.60;5.70;;;;;;;13.76;76.09;99068.58;106353;1277;25203;-84
2022/06/18 01:28:40;;;;;;;11.30;5.80;;;;;;;13.73;76.12;99062.42;106550;1277;25403;-83
2022/06/18 01:31:09;;;;;;;9.90;4.90;;;;;;;13.72;76.15;99059.09;106335;1277;138067;-83
2022/06/18 01:33:37;;;;;;;9.70;6.00;;;;;;;13.74;76.20;99060.80;106257;1277;25630;-84
2022/06/18 01:36:11;;;;;;;9.40;6.30;;;;;;;13.74;76.17;99056.39;106117;1278;137669;-84
2022/06/18 01:38:43;;;;;;;10.30;6.10;;;;;;;13.74;76.27;99057.27;106046;1278;25221;-83
2022/06/18 01:44:43;;;;;;;8.60;5.60;;;;;;;13.73;76.43;99052.38;106250;1277;31510;-83
2022/06/18 01:47:18;;;;;;;7.80;5.00;;;;;;;13.73;76.34;99054.72;106001;1278;138136;-83
2022/06/18 01:50:20;;;;;;;7.50;4.90;;;;;;;13.72;76.23;99048.91;106172;1277;23909;-84
2022/06/18 01:52:54;;;;;;;9.60;5.60;;;;;;;13.70;76.28;99046.69;105935;1277;24339;-84
2022/06/18 01:55:32;;;;;;;9.20;5.30;;;;;;;13.70;76.57;99048.72;105820;1278;137739;-83
2022/06/18 01:58:07;;;;;;;7.00;4.50;;;;;;;13.68;76.57;99045.63;105766;1281;25245;-84
2022/06/18 02:00:35;;;;;;;4.90;4.40;;;;;;;13.59;75.98;99045.42;106133;1277;137987;-84
2022/06/18 02:03:05;;;;;;;9.60;4.80;;;;;;;13.43;75.78;99042.44;106301;1278;22635;-83
2022/06/18 02:05:33;;;;;;;10.80;4.60;;;;;;;13.32;76.44;99037.06;105977;1277;137752;-83
2022/06/18 02:08:01;;;;;;;7.30;5.10;;;;;;;13.26;76.78;99036.02;106215;1277;22840;-83
2022/06/18 02:10:51;;;;;;;8.10;5.50;;;;;;;13.23;77.16;99034.65;106232;1277;22713;-83
2022/06/18 02:13:23;;;;;;;10.00;5.30;;;;;;;13.23;77.42;99035.47;105921;1278;138360;-84
2022/06/18 02:15:54;;;;;;;10.70;4.80;;;;;;;13.25;77.55;99042.56;105880;1277;22715;-83
2022/06/18 02:18:22;;;;;;;7.20;5.20;;;;;;;13.27;77.47;99035.81;105675;1277;138211;-84
2022/06/18 02:20:55;;;;;;;6.20;4.50;;;;;;;13.28;77.37;99030.86;105917;1277;22553;-83
2022/06/18 02:23:24;;;;;;;7.80;5.30;;;;;;;13.28;77.57;99029.70;106103;1277;137793;-83
2022/06/18 02:25:52;;;;;;;6.60;5.20;;;;;;;13.25;77.58;99032.17;106134;1281;24265;-83
2022/06/18 02:28:27;;;;;;;8.50;5.10;;;;;;;13.22;77.84;99032.52;106027;1281;23396;-84
2022/06/18 02:31:00;;;;;;;7.00;4.50;;;;;;;13.20;77.91;99031.20;106077;1278;137901;-84
2022/06/18 02:33:39;;;;;;;8.40;4.60;;;;;;;13.17;77.97;99031.77;106286;1276;22568;-83
2022/06/18 02:36:14;;;;;;;7.10;4.80;;;;;;;13.14;78.03;99031.55;105906;1281;137467;-84
2022/06/18 02:38:43;;;;;;;9.10;5.10;;;;;;;13.12;78.22;99033.48;106508;1277;23410;-84
2022/06/18 02:41:13;;;;;;;8.20;5.50;;;;;;;13.09;78.14;99033.48;106339;1277;137373;-84
2022/06/18 02:43:43;;;;;;;8.50;4.90;;;;;;;13.06;78.24;99033.66;106262;1277;26083;-83
2022/06/18 02:46:13;;;;;;;10.40;6.00;;;;;;;13.06;78.27;99027.79;106342;1278;22685;-85
2022/06/18 02:48:42;;;;;;;7.20;5.50;;;;;;;13.03;78.24;99027.48;106131;1278;137790;-85
2022/06/18 02:51:12;;;;;;;9.00;6.10;;;;;;;13.00;78.34;99028.52;106117;1278;22534;-86
2022/06/18 02:53:42;;;;;;;9.90;5.60;;;;;;;12.98;78.16;99028.27;106162;1278;137367;-86
2022/06/18 02:56:13;;;;;;;8.80;5.30;;;;;;;12.95;78.53;99029.36;105803;1278;22556;-85
2022/06/18 02:58:47;;;;;;;7.80;5.30;;;;;;;12.95;78.59;99027.39;106142;1278;25381;-84
2022/06/18 03:01:18;;;;;;;12.60;5.70;;;;;;;12.95;78.49;99028.59;105940;1277;137550;-86
2022/06/18 03:03:50;;;;;;;9.00;5.60;;;;;;;12.95;78.66;99030.95;106177;1278;24309;-84
2022/06/18 03:06:20;;;;;;;8.20;5.80;;;;;;;12.95;78.89;99029.90;106060;1277;137396;-83
2022/06/18 03:08:49;;;;;;;11.10;5.70;;;;;;;12.96;78.81;99029.88;106118;1277;24350;-83
2022/06/18 03:14:13;;;;;;;11.90;6.60;;;;;;;13.00;78.59;99032.73;106503;1277;22611;-83
2022/06/18 03:16:45;;;;;;;9.10;6.20;;;;;;;13.03;78.71;99033.75;106044;1278;22615;-84
2022/06/18 03:19:39;;;;;;;14.60;6.70;;;;;;;13.03;78.70;99032.35;106182;1277;137419;-83
2022/06/18 03:22:13;;;;;;;9.00;6.40;;;;;;;13.05;78.76;99032.82;106285;1277;24306;-83
2022/06/18 03:24:42;;;;;;;8.20;6.20;;;;;;;13.03;78.72;99035.09;106025;1278;138229;-84
2022/06/18 03:27:12;;;;;;;10.40;6.10;;;;;;;13.04;78.60;99035.48;106729;1277;25522;-84
2022/06/18 03:29:42;;;;;;;10.80;7.00;;;;;;;13.06;78.68;99031.63;106362;1277;137682;-84
2022/06/18 03:32:10;;;;;;;13.20;7.70;;;;;;;13.07;78.81;99031.00;106431;1277;22615;-84
2022/06/18 03:34:38;;;;;;;11.00;7.20;;;;;;;13.07;78.80;99031.38;106418;1277;24262;-84
2022/06/18 03:37:06;;;;;;;10.60;6.40;;;;;;;13.09;78.54;99033.11;106011;1278;138722;-83
2022/06/18 03:39:35;;;;;;;10.70;7.30;;;;;;;13.10;78.71;99032.58;106119;1277;24441;-84
2022/06/18 03:42:04;;;;;;;10.60;7.10;;;;;;;13.13;78.79;99034.70;106168;1277;137633;-83
2022/06/18 03:44:32;;;;;;;12.20;7.70;;;;;;;13.16;78.76;99032.06;106410;1277;22412;-83
2022/06/18 03:47:02;;;;;;;14.00;8.00;;;;;;;13.16;78.66;99035.80;106321;1277;23516;-84
2022/06/18 03:49:34;;;;;;;9.40;7.80;;;;;;;13.15;78.72;99028.17;106239;1277;25271;-83
2022/06/18 03:52:05;;;;;;;13.50;7.10;;;;;;;13.17;78.73;99027.11;106075;1277;22566;-85
2022/06/18 03:54:34;;;;;;;10.20;8.00;;;;;;;13.20;78.87;99026.02;106542;1277;138157;-84
2022/06/18 03:57:02;;;;;;;;;;;;;;;13.23;78.99;99020.44;106586;1276;22550;-84
2022/06/18 03:59:31;;;;;;;10.40;7.80;;;;;;;13.26;79.08;99017.03;106305;1277;123961;-85
2022/06/18 04:02:00;;;;;;;;;;;;;;;13.27;78.98;99020.94;106596;1276;22563;-85
2022/06/18 04:04:32;;;;;;;10.50;7.60;;;;;;;13.24;79.22;99023.06;106389;1278;24412;-84
2022/06/18 04:07:00;;;;;;;12.20;7.70;;;;;;;13.25;79.30;99025.27;106371;1277;138641;-85
2022/06/18 04:09:40;;;;;;;12.70;7.70;;;;;;;13.27;79.36;99023.02;106538;1277;25338;-85
2022/06/18 04:12:10;;;;;;;12.40;7.60;;;;;;;13.30;79.41;99023.34;106491;1277;137194;-85
2022/06/18 04:15:01;;;;;;;10.70;6.80;;;;;;;13.31;79.45;99025.17;106510;1277;22538;-84
2022/06/18 04:17:37;;;;;;;13.80;8.70;;;;;;;13.28;79.45;99025.78;106343;1276;137537;-84
2022/06/18 04:20:06;;;;;;;11.90;8.50;;;;;;;13.26;79.37;99024.98;106304;1276;23217;-84
2022/06/18 04:22:34;;;;;;;11.00;8.00;;;;;;;13.27;79.82;99026.79;106421;1276;25473;-83
2022/06/18 04:25:08;;;;;;;15.20;8.20;;;;;;;13.33;79.98;99023.03;106142;1277;137903;-83
2022/06/18 04:27:37;;;;;;;14.10;8.40;;;;;;;13.44;80.05;99025.17;106620;1277;22583;-83
2022/06/18 04:30:05;;;;;;;13.00;8.40;;;;;;;13.53;80.18;99027.50;106235;1278;137299;-83
2022/06/18 04:32:53;;;;;;;12.60;8.30;;;;;;;13.63;79.98;99024.70;106453;1277;24386;-83
2022/06/18 04:35:21;;;;;;;9.70;8.10;;;;;;;13.71;79.86;99028.86;106600;1277;138209;-84
2022/06/18 04:38:02;;;;;;;10.30;8.40;;;;;;;13.82;79.83;99030.83;106710;1276;30235;-83
2022/06/18 04:40:44;;;;;;;13.30;8.90;;;;;;;13.93;79.72;99033.00;106606;1274;24297;-84
2022/06/18 04:43:21;;;;;;;12.00;8.60;;;;;;;14.03;79.65;99039.45;106662;1276;137266;-84
2022/06/18 04:45:54;;;;;;;14.80;9.00;;;;;;;14.10;79.51;99037.61;106354;1277;25278;-82
2022/06/18 04:48:24;;;;;;;9.80;7.40;;;;;;;14.13;79.44;99033.53;106110;1278;137953;-85
2022/06/18 04:50:53;;;;;;;12.50;8.30;;;;;;;14.17;79.49;99031.95;106737;1275;23931;-84
2022/06/18 04:53:21;;;;;;;13.20;8.50;;;;;;;14.25;79.59;99031.45;106275;1277;138260;-82
2022/06/18 04:55:56;;;;;;;11.10;8.90;;;;;;;14.32;79.04;99030.44;106487;1277;23943;-82
2022/06/18 04:58:24;;;;;;;16.30;9.10;;;;;;;14.40;79.07;99028.55;106443;1276;22704;-82
2022/06/18 05:00:58;;;;;;;16.80;8.50;;;;;;;14.47;78.84;99030.02;106315;1278;137537;-82
2022/06/18 05:03:52;;;;;;;13.20;7.40;;;;;;;14.56;78.58;99029.84;106410;1276;22631;-82
2022/06/18 05:06:35;;;;;;;11.40;8.00;;;;;;;14.68;78.43;99026.65;106361;1277;137709;-82
2022/06/18 05:09:14;;;;;;;14.30;7.20;;;;;;;14.79;78.22;99022.38;106554;1277;22497;-83
2022/06/18 05:11:57;;;;;;;10.30;7.40;;;;;;;14.89;77.87;99023.67;106542;1277;137777;-82
2022/06/18 05:14:39;;;;;;;10.90;6.90;;;;;;;14.97;77.51;99025.91;106331;1276;22554;-84
2022/06/18 05:17:15;;;;;;;9.90;7.40;;;;;;;15.05;77.42;99029.42;106243;1278;137729;-82
2022/06/18 05:19:44;;;;;;;12.60;7.00;;;;;;;15.14;77.11;99028.80;106918;1277;22557;-82
2022/06/18 05:22:13;;;;;;;8.20;6.70;;;;;;;15.25;76.75;99031.70;106661;1276;25347;-82
2022/06/18 05:24:41;;;;;;;11.10;6.70;;;;;;;15.34;76.63;99031.33;106674;1276;138620;-81
2022/06/18 05:27:29;;;;;;;9.70;6.70;;;;;;;15.44;75.98;99024.88;106780;1277;24274;-82
2022/06/18 05:29:57;;;;;;;11.30;6.20;;;;;;;15.55;75.78;99027.58;106390;1277;137552;-82
2022/06/18 05:32:32;;;;;;;11.30;6.40;;;;;;;15.64;75.25;99033.64;106232;1277;22564;-82
2022/06/18 05:35:01;;;;;;;12.00;6.20;;;;;;;15.73;74.50;99033.92;106681;1277;25807;-81
2022/06/18 05:37:31;;;;;;;9.30;5.90;;;;;;;15.81;74.14;99034.17;106219;1276;137886;-83
2022/06/18 05:40:00;;;;;;;7.50;6.30;;;;;;;15.91;73.81;99037.52;106474;1277;22594;-83
2022/06/18 05:42:28;;;;;;;7.60;5.90;;;;;;;15.99;73.31;99033.44;106407;1278;137229;-83
2022/06/18 05:44:57;;;;;;;7.30;5.50;;;;;;;16.08;73.34;99036.02;106498;1276;24249;-82
2022/06/18 05:47:33;;;;;;;11.00;6.30;;;;;;;16.17;73.37;99033.70;106358;1277;137468;-80
2022/06/18 05:50:03;;;;;;;8.50;6.00;;;;;;;16.26;73.21;99035.17;106454;1277;22552;-82
2022/06/18 05:52:34;;;;;;;10.90;6.20;;;;;;;16.33;72.96;99029.66;106317;1277;22558;-83
2022/06/18 05:55:12;;;;;;;8.60;5.60;;;;;;;16.43;72.89;99031.50;106298;1277;138084;-82
2022/06/18 05:57:50;;;;;;;9.50;5.40;;;;;;;16.52;72.54;99027.84;106484;1277;22613;-83
2022/06/18 06:00:35;;;;;;;9.10;5.70;;;;;;;16.63;71.56;99029.48;106480;1276;137155;-82
2022/06/18 06:03:04;;;;;;;7.90;5.20;;;;;;;16.72;71.76;99030.21;106481;1277;22538;-84
2022/06/18 06:05:32;;;;;;;10.20;5.70;;;;;;;16.81;71.35;99026.29;106235;1278;137827;-84
2022/06/18 06:08:00;;;;;;;7.60;5.10;;;;;;;16.90;70.92;99025.77;106498;1277;25213;-85
2022/06/18 06:13:22;;;;;;;8.10;5.00;;;;;;;17.08;70.45;99019.79;106192;1276;137518;-82
2022/06/18 06:15:52;;;;;;;9.00;4.60;;;;;;;17.17;69.89;99021.73;106435;1276;24272;-83
2022/06/18 06:18:23;;;;;;;8.80;5.30;;;;;;;17.26;69.56;99020.41;106411;1277;137162;-82
2022/06/18 06:20:54;;;;;;;8.30;4.60;;;;;;;17.33;69.03;99017.33;106712;1276;22538;-82
2022/06/18 06:23:22;;;;;;;7.80;4.60;;;;;;;17.40;68.93;99016.55;106376;1277;137261;-83
2022/06/18 06:25:50;;;;;;;6.20;4.80;;;;;;;17.48;68.85;99017.82;106383;1277;22871;-83
2022/06/18 06:28:24;;;;;;;8.20;4.90;;;;;;;17.58;69.07;99015.60;106614;1276;24228;-82
2022/06/18 06:30:53;;;;;;;6.00;4.70;;;;;;;17.68;68.84;99011.73;106395;1276;137995;-83
2022/06/18 06:33:21;;;;;;;10.80;4.50;;;;;;;17.76;68.49;99011.48;106270;1276;23379;-83
2022/06/18 06:35:51;;;;;;;6.90;4.60;;;;;;;17.86;68.39;99011.05;106285;1278;137788;-83
2022/06/18 06:38:19;;;;;;;10.80;4.70;;;;;;;17.95;68.49;99010.65;106621;1276;24299;-83
2022/06/18 06:40:47;;;;;;;6.10;4.20;;;;;;;18.05;68.32;99007.48;106431;1276;22538;-83
2022/06/18 06:43:17;;;;;;;7.10;4.70;;;;;;;18.14;68.27;99007.28;106600;1276;137586;-82
2022/06/18 06:45:45;;;;;;;12.80;4.40;;;;;;;18.24;68.25;99005.80;106552;1278;24293;-83
2022/06/18 06:48:13;;;;;;;6.10;4.20;;;;;;;18.34;67.89;98998.87;106227;1276;137876;-82
2022/06/18 06:50:41;;;;;;;6.40;4.20;;;;;;;18.43;67.76;98999.59;106528;1277;24213;-82
2022/06/18 06:53:11;;;;;;;7.50;3.90;;;;;;;18.53;67.80;98997.27;106481;1277;137384;-80
2022/06/18 06:58:26;;;;;;;6.10;4.20;;;;;;;18.80;67.57;99000.83;106703;1277;22574;-82
2022/06/18 07:00:57;;;;;;;5.90;4.30;;;;;;;18.93;67.38;99004.23;106485;1276;137149;-83
2022/06/18 07:03:30;;;;;;;7.10;3.90;;;;;;;19.06;67.31;99004.21;106451;1278;22559;-82
2022/06/18 07:06:00;;;;;;;8.60;4.30;;;;;;;19.19;67.00;98999.40;106410;1276;137181;-83
2022/06/18 07:08:28;;;;;;;6.30;4.10;;;;;;;19.30;67.01;98997.39;106466;1276;22587;-82
2022/06/18 07:10:56;;;;;;;6.30;3.50;;;;;;;19.42;66.71;98993.70;106684;1277;25251;-85
2022/06/18 07:13:24;;;;;;;7.40;3.50;;;;;;;19.52;65.09;98988.57;106559;1277;137767;-76
2022/06/18 07:15:53;;;;;;;10.00;4.00;;;;;;;19.62;65.37;98985.92;106275;1277;22627;-76
2022/06/18 07:18:25;;;;;;;5.90;3.70;;;;;;;19.75;64.71;98984.33;106050;1277;137838;-80
2022/06/18 07:20:53;;;;;;;6.40;3.40;;;;;;;19.89;64.92;98984.30;106168;1277;25472;-87
2022/06/18 07:23:23;;;;;;;6.80;3.40;;;;;;;20.03;64.13;98979.09;106577;1276;137361;-83
2022/06/18 07:25:53;;;;;;;4.30;2.80;;;;;;;20.15;62.59;98980.11;106565;1276;22614;-76
2022/06/18 07:28:21;;;;;;;5.00;3.00;;;;;;;20.26;61.59;98985.02;106650;1276;22728;-86
2022/06/18 07:30:50;;;;;;;4.70;2.60;;;;;;;20.36;59.78;98985.33;106247;1277;137211;-83
2022/06/18 07:33:21;;;;;;;4.40;2.30;;;;;;;20.45;58.77;98983.34;106294;1277;26599;-75
2022/06/18 07:35:50;;;;;;;2.70;2.20;;;;;;;20.55;58.31;98982.09;106097;1276;137380;-75
2022/06/18 07:38:18;;;;;;;2.80;2.20;;;;;;;20.67;57.52;98986.53;105543;1277;539649;-76
2022/06/18 07:40:50;;;;;;;4.70;2.70;;;;;;;20.78;56.51;98983.11;106665;1276;24016;-81
2022/06/18 07:43:21;;;;;;;3.90;2.00;;;;;;;20.91;56.08;98987.96;106146;1276;137813;-83
2022/06/18 07:45:49;;;;;;;5.00;2.20;;;;;;;21.04;55.04;98990.36;106688;1276;22552;-83
2022/06/18 07:48:17;;;;;;;3.50;2.50;;;;;;;21.19;54.59;98988.86;106506;1276;137171;-83
2022/06/18 07:50:48;;;;;;;3.30;2.20;;;;;;;21.31;54.77;98996.13;106464;1277;22496;-83
2022/06/18 07:53:22;;;;;;;3.80;2.00;;;;;;;21.45;54.66;98997.64;106221;1277;137359;-82
2022/06/18 07:55:50;;;;;;;5.30;2.20;;;;;;;21.56;53.75;99000.55;106685;1277;22662;-83
2022/06/18 07:58:18;;;;;;;4.90;1.70;;;;;;;21.67;53.00;99001.29;106101;1277;22532;-83
2022/06/18 08:00:47;;;;;;;3.10;1.50;;;;;;;21.78;51.46;99001.14;106086;1278;137796;-85
2022/06/18 08:03:17;;;;;;;6.30;2.10;;;;;;;21.90;50.30;99000.60;106189;1276;26501;-83
2022/06/18 08:05:46;;;;;;;3.70;1.60;;;;;;;22.02;50.70;98999.80;106457;1277;137416;-84
2022/06/18 08:08:16;;;;;;;3.50;1.80;;;;;;;22.15;50.13;99000.88;106429;1276;22576;-83
2022/06/18 08:10:49;;;;;;;3.80;1.70;;;;;;;22.27;49.28;98998.94;106414;1277;23393;-82
2022/06/18 08:13:17;;;;;;;2.40;1.70;;;;;;;22.38;49.58;99002.87;106244;1277;138343;-83
2022/06/18 08:15:45;;;;;;;4.60;1.70;;;;;;;22.54;49.30;99001.27;106689;1277;24266;-84
2022/06/18 08:18:13;;;;;;;3.50;1.80;;;;;;;22.68;47.93;98998.79;105885;1277;137308;-82
2022/06/18 08:20:42;;;;;;;4.20;1.90;;;;;;;22.77;47.23;98995.87;107639;1276;22652;-82
2022/06/18 08:23:11;;;;;;;10.60;6.10;;;;;;;22.85;47.53;98991.16;106841;1277;137375;-83
2022/06/18 08:25:42;;;;;;;10.90;5.00;;;;;;;22.93;46.65;98987.55;107251;1277;25269;-85
2022/06/18 08:28:11;;;;;;;12.30;8.60;;;;;;;22.99;45.75;98983.31;106773;1278;22596;-83
2022/06/18 08:30:41;;;;;;;6.40;3.70;;;;;;;23.05;45.97;98982.18;106454;1279;137736;-83
2022/06/18 08:33:09;;;;;;;65.80;41.80;;;;;;;23.17;45.23;98977.43;106551;1275;22704;-85
2022/06/18 08:35:38;;;;;;;17.50;13.20;;;;;;;23.30;44.69;98975.80;106440;1277;137661;-87
2022/06/18 08:38:08;;;;;;;6.00;3.20;;;;;;;23.42;44.00;98969.20;106759;1277;23013;-85
2022/06/18 08:40:56;;;;;;;4.20;1.90;;;;;;;23.57;43.66;98967.73;106927;1277;23114;-82
2022/06/18 08:44:04;;;;;;;3.70;2.30;;;;;;;23.69;42.91;98965.98;106475;1277;136888;-84
2022/06/18 08:46:50;;;;;;;5.20;2.50;;;;;;;23.77;43.18;98958.91;106100;1278;22624;-85
2022/06/18 08:49:50;;;;;;;2.90;1.40;;;;;;;23.87;43.57;98951.95;106183;1277;137930;-83
2022/06/18 08:52:36;;;;;;;3.10;1.80;;;;;;;23.96;42.60;98956.20;106471;1277;25594;-83
2022/06/18 08:55:19;;;;;;;2.00;1.70;;;;;;;23.99;42.73;98955.27;106312;1277;137166;-82
2022/06/18 08:58:09;;;;;;;1.60;1.50;;;;;;;24.03;43.65;98951.22;106269;1277;23908;-84
2022/06/18 09:00:51;;;;;;;2.50;1.80;;;;;;;24.20;43.79;98954.85;106024;1277;137196;-81
2022/06/18 09:03:27;;;;;;;2.20;1.60;;;;;;;24.36;44.21;98949.47;106484;1278;22573;-83
2022/06/18 09:06:19;;;;;;;2.60;1.50;;;;;;;24.51;43.42;98945.30;105926;1277;138297;-85
2022/06/18 09:09:17;;;;;;;4.40;1.70;;;;;;;24.64;42.37;98936.25;106131;1278;24307;-84
2022/06/18 09:11:53;;;;;;;1.90;1.30;;;;;;;24.77;42.57;98938.27;106201;1277;137287;-84
2022/06/18 09:15:01;;;;;;;1.80;1.30;;;;;;;24.91;41.43;98935.42;106289;1277;23111;-83
2022/06/18 09:17:35;;;;;;;2.00;1.30;;;;;;;25.04;40.60;98933.83;106067;1277;137361;-83
2022/06/18 09:20:29;;;;;;;3.10;1.40;;;;;;;25.11;40.06;98932.65;105988;1277;23254;-84
2022/06/18 09:23:03;;;;;;;1.90;1.40;;;;;;;25.08;39.08;98929.89;106175;1276;22554;-83
2022/06/18 09:25:39;;;;;;;4.00;1.40;;;;;;;25.11;38.98;98926.91;106373;1276;137228;-85
2022/06/18 09:28:16;;;;;;;2.40;1.30;;;;;;;25.16;38.71;98918.81;106302;1276;25462;-85
2022/06/18 09:30:51;;;;;;;1.40;1.00;;;;;;;25.30;37.97;98920.38;106383;1278;137066;-84
2022/06/18 09:33:37;;;;;;;1.90;1.20;;;;;;;25.50;38.16;98926.55;106820;1277;23927;-84
2022/06/18 09:36:17;;;;;;;3.40;1.40;;;;;;;25.78;37.66;98920.88;106077;1277;137336;-84
2022/06/18 09:38:49;;;;;;;5.20;1.70;;;;;;;26.01;37.41;98916.04;105978;1277;22548;-84
2022/06/18 09:41:43;;;;;;;1.90;1.20;;;;;;;26.19;36.87;98916.35;106272;1277;137210;-84
2022/06/18 09:44:23;;;;;;;3.00;1.50;;;;;;;26.25;36.75;98913.72;106065;1279;25627;-83
2022/06/18 09:46:59;;;;;;;2.50;1.40;;;;;;;26.31;37.31;98916.50;106248;1276;22885;-83
2022/06/18 09:49:29;;;;;;;1.90;1.50;;;;;;;26.52;37.27;98911.89;106097;1276;137082;-83
2022/06/18 09:52:04;;;;;;;3.10;1.20;;;;;;;26.65;36.30;98904.45;106204;1276;22565;-83
2022/06/18 09:54:43;;;;;;;2.30;1.40;;;;;;;26.69;36.58;98908.75;106491;1277;137247;-82
2022/06/18 09:57:15;;;;;;;5.60;2.00;;;;;;;26.82;37.23;98907.22;106089;1277;22560;-83
2022/06/18 09:59:52;;;;;;;2.20;1.50;;;;;;;26.92;36.60;98903.52;106420;1277;137447;-84
2022/06/18 10:02:27;;;;;;;2.80;1.90;;;;;;;27.06;36.23;98901.88;106360;1277;24184;-90
2022/06/18 10:07:51;;;;;;;4.40;1.20;;;;;;;27.54;36.06;98888.11;105975;1276;24306;-88
2022/06/18 10:10:25;;;;;;;2.60;1.30;;;;;;;27.80;35.10;98884.54;106342;1276;25390;-87
2022/06/18 10:12:59;;;;;;;2.90;1.20;;;;;;;27.93;34.35;98881.59;105916;1276;137462;-88
2022/06/18 10:15:28;;;;;;;2.30;1.40;;;;;;;27.95;33.89;98877.98;106085;1277;31072;-88
2022/06/18 10:18:19;;;;;;;1.30;1.20;;;;;;;27.92;33.72;98879.58;106513;1277;137251;-90
2022/06/18 10:21:24;;;;;;;2.50;1.20;;;;;;;27.85;33.51;98874.78;106489;1277;24244;-89
2022/06/18 10:24:30;;;;;;;2.30;1.10;;;;;;;27.69;33.07;98870.73;106429;1276;138012;-89
2022/06/18 10:27:17;;;;;;;3.50;1.40;;;;;;;27.41;34.01;98869.95;106375;1276;22557;-89
2022/06/18 10:30:06;;;;;;;3.50;1.80;;;;;;;27.13;33.42;98870.78;106257;1277;138017;-90
2022/06/18 10:33:23;;;;;;;1.40;1.20;;;;;;;26.91;33.44;98864.98;106369;1276;24263;-89
2022/06/18 10:36:16;;;;;;;2.90;1.70;;;;;;;26.78;34.34;98866.12;106177;1277;137420;-89
2022/06/18 10:39:06;;;;;;;4.50;1.50;;;;;;;26.71;34.39;98861.64;106367;1277;22535;-88
2022/06/18 10:41:58;;;;;;;3.20;1.70;;;;;;;26.63;34.06;98859.25;106432;1277;137281;-89
2022/06/18 10:44:38;;;;;;;3.80;1.30;;;;;;;26.71;34.59;98858.52;106326;1276;22549;-89
2022/06/18 10:47:13;;;;;;;1.90;1.10;;;;;;;26.84;33.91;98856.65;106370;1276;137177;-88
2022/06/18 10:49:41;;;;;;;1.60;1.10;;;;;;;26.95;33.83;98851.80;106683;1276;25465;-88
2022/06/18 10:52:24;;;;;;;1.40;1.30;;;;;;;27.24;34.37;98846.43;106156;1276;25398;-88
2022/06/18 10:55:11;;;;;;;2.00;0.90;;;;;;;27.59;33.75;98843.13;105752;1279;137570;-86
2022/06/18 10:57:40;;;;;;;2.90;1.20;;;;;;;27.91;32.84;98839.85;105976;1279;22578;-89
2022/06/18 11:00:28;;;;;;;4.90;1.10;;;;;;;28.21;34.00;98845.77;106091;1276;137798;-81
2022/06/18 11:03:00;;;;;;;1.90;1.20;;;;;;;28.53;33.08;98842.55;106042;1277;22555;-90
2022/06/18 11:05:32;;;;;;;1.60;1.20;;;;;;;28.74;31.90;98841.33;106024;1277;137784;-85
2022/06/18 11:08:04;;;;;;;2.40;1.20;;;;;;;28.76;30.73;98838.10;106208;1277;25285;-88
2022/06/18 11:10:56;;;;;;;1.30;1.20;;;;;;;28.69;31.29;98842.47;106226;1277;22648;-87
2022/06/18 11:13:35;;;;;;;1.50;1.30;;;;;;;28.61;32.16;98838.98;106292;1277;137148;-89
2022/06/18 11:16:15;;;;;;;2.70;1.10;;;;;;;28.62;31.97;98834.60;106388;1277;25333;-89
2022/06/18 11:18:53;;;;;;;2.00;1.10;;;;;;;28.55;33.03;98838.45;106094;1277;137351;-87
2022/06/18 11:21:35;;;;;;;2.30;0.90;;;;;;;28.56;32.81;98840.50;106234;1276;22704;-87
2022/06/18 11:24:32;;;;;;;2.80;1.20;;;;;;;28.52;32.06;98838.20;106527;1274;137501;-89
2022/06/18 11:27:11;;;;;;;2.80;1.10;;;;;;;28.50;31.08;98833.41;106330;1276;30640;-88
2022/06/18 11:30:07;;;;;;;1.50;1.40;;;;;;;28.48;31.45;98827.36;107618;1274;137414;-89
2022/06/18 11:32:42;;;;;;;1.40;1.10;;;;;;;28.53;31.69;98828.65;106578;1276;22767;-90
2022/06/18 11:35:20;;;;;;;1.50;1.10;;;;;;;28.60;31.31;98825.96;106558;1274;137945;-89
2022/06/18 11:38:20;;;;;;;2.60;1.00;;;;;;;28.61;30.29;98822.30;106754;1277;22623;-89
2022/06/18 11:40:53;;;;;;;1.20;1.10;;;;;;;28.46;30.71;98823.06;107074;1277;22541;-88
2022/06/18 11:43:44;;;;;;;2.20;1.10;;;;;;;28.49;30.77;98814.43;106845;1277;137879;-89
2022/06/18 11:46:27;;;;;;;1.30;1.10;;;;;;;28.60;31.64;98813.39;106897;1277;22539;-88
2022/06/18 11:48:59;;;;;;;2.40;1.20;;;;;;;28.80;31.42;98810.09;106450;1277;137799;-89
2022/06/18 11:52:03;;;;;;;2.40;1.30;;;;;;;28.95;30.87;98804.91;106968;1276;22598;-88
2022/06/18 11:55:09;;;;;;;1.40;1.00;;;;;;;29.07;30.33;98798.73;106652;1276;137517;-87
2022/06/18 11:58:00;;;;;;;1.30;1.20;;;;;;;29.25;30.57;98794.34;106674;1277;30217;-88
2022/06/18 12:00:50;;;;;;;3.80;1.20;;;;;;;29.31;30.31;98793.79;106507;1276;137260;-89
2022/06/18 12:03:32;;;;;;;1.90;1.20;;;;;;;29.30;29.78;98788.55;106605;1276;24441;-90
2022/06/18 12:06:18;;;;;;;1.90;1.20;;;;;;;29.29;29.71;98790.27;106243;1276;137731;-89
2022/06/18 12:08:47;;;;;;;2.70;1.10;;;;;;;29.33;29.61;98783.64;106721;1274;26522;-89
2022/06/18 12:11:42;;;;;;;1.70;1.20;;;;;;;29.43;30.35;98781.63;106836;1274;137463;-88
2022/06/18 12:14:41;;;;;;;2.20;1.30;;;;;;;29.60;29.62;98776.34;106560;1274;25413;-88
2022/06/18 12:17:17;;;;;;;1.00;1.00;;;;;;;29.65;29.63;98768.61;106505;1276;137656;-88